createdAt,value
2018-05-04T00:00:46.023Z,99.90
2018-05-04T00:03:15.244Z,99.90
2018-05-04T00:05:44.578Z,99.90
2018-05-04T00:08:14.566Z,99.90
2018-05-04T00:10:43.778Z,99.90
2018-05-04T00:13:14.096Z,99.90
2018-05-04T00:15:43.314Z,99.90
2018-05-04T00:18:13.519Z,99.90
2018-05-04T00:20:42.907Z,99.90
2018-05-04T00:23:12.244Z,99.90
2018-05-04T00:25:41.460Z,99.90
2018-05-04T00:28:11.538Z,99.90
2018-05-04T00:30:40.760Z,99.90
2018-05-04T00:33:10.081Z,99.90
2018-05-04T00:35:39.862Z,99.90
2018-05-04T00:38:10.011Z,99.90
2018-05-04T00:40:39.236Z,99.90
2018-05-04T00:43:08.596Z,99.90
2018-05-04T00:45:37.788Z,99.90
2018-05-04T00:48:07.171Z,99.90
2018-05-04T00:50:36.399Z,99.90
2018-05-04T00:53:05.729Z,99.90
2018-05-04T00:55:34.955Z,99.90
2018-05-04T00:58:04.339Z,99.90
2018-05-04T01:00:33.571Z,99.90
2018-05-04T01:03:02.914Z,99.90
2018-05-04T01:05:32.331Z,99.90
2018-05-04T01:08:01.517Z,99.90
2018-05-04T01:10:30.889Z,99.90
2018-05-04T01:13:00.106Z,99.90
2018-05-04T01:15:29.446Z,99.90
2018-05-04T01:17:58.681Z,99.90
2018-05-04T01:20:28.007Z,99.90
2018-05-04T01:22:57.234Z,99.90
2018-05-04T01:25:26.560Z,99.90
2018-05-04T01:27:55.775Z,99.90
2018-05-04T01:30:25.105Z,99.90
2018-05-04T01:32:55.128Z,99.90
2018-05-04T01:35:24.413Z,99.90
2018-05-04T01:37:53.633Z,99.90
2018-05-04T01:40:23.763Z,99.90
2018-05-04T01:42:52.973Z,99.90
2018-05-04T01:45:22.357Z,99.90
2018-05-04T01:47:52.351Z,99.90
2018-05-04T01:50:21.570Z,99.90
2018-05-04T01:52:51.654Z,99.90
2018-05-04T01:55:21.088Z,99.90
2018-05-04T01:57:50.388Z,99.90
2018-05-04T02:00:19.622Z,99.90
2018-05-04T02:02:48.949Z,99.90
2018-05-04T02:05:18.173Z,99.90
2018-05-04T02:07:47.527Z,99.90
2018-05-04T02:10:16.701Z,99.90
2018-05-04T02:12:46.066Z,99.90
2018-05-04T02:15:15.482Z,99.90
2018-05-04T02:17:44.773Z,99.90
2018-05-04T02:20:13.993Z,99.90
2018-05-04T02:22:43.506Z,99.90
2018-05-04T02:25:13.481Z,99.90
2018-05-04T02:27:42.828Z,99.90
2018-05-04T02:30:12.818Z,99.90
2018-05-04T02:32:42.274Z,99.90
2018-05-04T02:35:11.490Z,99.90
2018-05-04T02:37:40.722Z,99.90
2018-05-04T02:40:10.040Z,99.90
2018-05-04T02:42:39.258Z,99.90
2018-05-04T02:45:08.587Z,99.90
2018-05-04T02:47:37.803Z,99.90
2018-05-04T02:50:07.143Z,99.90
2018-05-04T02:52:37.132Z,99.90
2018-05-04T02:55:06.455Z,99.90
2018-05-04T02:57:35.686Z,99.90
2018-05-04T03:00:05.015Z,99.90
2018-05-04T03:02:34.323Z,99.90
2018-05-04T03:05:03.610Z,99.90
2018-05-04T03:07:32.932Z,99.90
2018-05-04T03:10:02.230Z,99.90
2018-05-04T03:12:31.515Z,99.90
2018-05-04T03:15:01.237Z,99.90
2018-05-04T03:17:30.457Z,99.90
2018-05-04T03:19:59.830Z,99.90
2018-05-04T03:22:29.047Z,99.90
2018-05-04T03:24:58.384Z,99.90
2018-05-04T03:27:28.378Z,99.90
2018-05-04T03:29:57.804Z,99.90
2018-05-04T03:32:27.790Z,99.90
2018-05-04T03:34:57.531Z,99.90
2018-05-04T03:37:27.525Z,99.90
2018-05-04T03:39:57.778Z,99.90
2018-05-04T03:42:27.009Z,99.90
2018-05-04T03:44:56.230Z,99.90
2018-05-04T03:47:25.534Z,99.90
2018-05-04T03:49:54.757Z,99.90
2018-05-04T03:52:24.847Z,99.90
2018-05-04T03:54:54.160Z,99.90
2018-05-04T03:57:40.926Z,99.90
2018-05-04T04:00:27.722Z,99.90
2018-05-04T04:03:14.817Z,99.90
2018-05-04T04:05:44.040Z,99.90
2018-05-04T04:08:13.372Z,99.90
2018-05-04T04:10:42.606Z,99.90
2018-05-04T04:13:12.124Z,99.90
2018-05-04T04:15:41.539Z,99.90
2018-05-04T04:18:10.930Z,99.90
2018-05-04T04:20:40.147Z,99.90
2018-05-04T04:23:09.478Z,99.90
2018-05-04T04:25:38.694Z,99.90
2018-05-04T04:28:08.035Z,99.90
2018-05-04T04:30:37.260Z,99.90
2018-05-04T04:33:07.350Z,99.90
2018-05-04T04:35:37.351Z,99.90
2018-05-04T04:38:06.678Z,99.90
2018-05-04T04:40:36.697Z,99.90
2018-05-04T04:43:07.231Z,99.90
2018-05-04T04:45:36.710Z,99.90
2018-05-04T04:48:06.032Z,99.90
2018-05-04T04:50:35.374Z,99.90
2018-05-04T04:53:05.083Z,99.90
2018-05-04T04:55:34.534Z,99.90
2018-05-04T04:58:03.750Z,99.90
2018-05-04T05:00:33.841Z,99.90
2018-05-04T05:03:03.061Z,99.90
2018-05-04T05:05:32.447Z,99.90
2018-05-04T05:08:01.666Z,99.90
2018-05-04T05:10:30.982Z,99.90
2018-05-04T05:13:00.191Z,99.90
2018-05-04T05:15:29.533Z,99.90
2018-05-04T05:17:58.759Z,98.80
2018-05-04T05:20:28.361Z,94.40
2018-05-04T05:22:57.590Z,91.50
2018-05-04T05:25:26.926Z,86.60
2018-05-04T05:27:56.153Z,82.20
2018-05-04T05:30:25.485Z,77.80
2018-05-04T05:32:54.762Z,67.90
2018-05-04T05:35:24.121Z,63.30
2018-05-04T05:37:53.370Z,58.90
2018-05-04T05:40:22.988Z,56.80
2018-05-04T05:42:52.553Z,56.50
2018-05-04T05:45:21.795Z,55.50
2018-05-04T05:47:51.116Z,53.60
2018-05-04T05:50:20.372Z,54.30
2018-05-04T05:52:49.719Z,56.60
2018-05-04T05:55:18.945Z,57.30
2018-05-04T05:57:48.382Z,60.00
2018-05-04T06:00:18.078Z,59.90
2018-05-04T06:02:47.599Z,61.90
2018-05-04T06:05:17.441Z,61.70
2018-05-04T06:07:47.426Z,57.00
2018-05-04T06:10:17.071Z,56.90
2018-05-04T06:12:46.442Z,55.60
2018-05-04T06:15:15.666Z,55.20
2018-05-04T06:17:45.046Z,54.50
2018-05-04T06:20:14.371Z,53.10
2018-05-04T06:22:44.671Z,51.80
2018-05-04T06:25:13.963Z,51.80
2018-05-04T06:27:43.904Z,54.10
2018-05-04T06:30:13.907Z,54.20
2018-05-04T06:32:43.310Z,54.20
2018-05-04T06:35:12.541Z,52.00
2018-05-04T06:37:41.777Z,49.20
2018-05-04T06:40:11.743Z,50.00
2018-05-04T06:42:40.978Z,50.10
2018-05-04T06:45:10.432Z,50.10
2018-05-04T06:47:39.818Z,49.90
2018-05-04T06:50:09.257Z,47.90
2018-05-04T06:52:38.532Z,50.20
2018-05-04T06:55:07.839Z,49.50
2018-05-04T06:57:37.101Z,48.80
2018-05-04T07:00:06.381Z,48.70
2018-05-04T07:02:35.632Z,48.90
2018-05-04T07:05:05.047Z,48.50
2018-05-04T07:07:34.265Z,49.10
2018-05-04T07:10:03.581Z,49.90
2018-05-04T07:12:32.873Z,46.90
2018-05-04T07:15:02.516Z,47.30
2018-05-04T07:17:31.798Z,44.10
2018-05-04T07:20:01.149Z,45.00
2018-05-04T07:22:31.108Z,45.50
2018-05-04T07:25:00.690Z,44.10
2018-05-04T07:27:30.407Z,45.30
2018-05-04T07:30:00.397Z,46.70
2018-05-04T07:32:31.446Z,45.00
2018-05-04T07:35:00.679Z,45.00
2018-05-04T07:37:30.253Z,46.70
2018-05-04T07:39:59.684Z,47.10
2018-05-04T07:42:29.054Z,48.00
2018-05-04T07:44:58.286Z,49.90
2018-05-04T07:47:27.642Z,50.20
2018-05-04T07:49:57.017Z,48.90
2018-05-04T07:52:26.355Z,50.20
2018-05-04T07:54:55.575Z,50.40
2018-05-04T07:57:25.069Z,51.60
2018-05-04T07:59:54.871Z,50.50
2018-05-04T08:02:24.292Z,53.40
2018-05-04T08:04:53.633Z,53.40
2018-05-04T08:07:23.097Z,54.70
2018-05-04T08:09:52.334Z,54.10
2018-05-04T08:12:21.694Z,55.70
2018-05-04T08:14:51.955Z,57.70
2018-05-04T08:17:21.514Z,58.30
2018-05-04T08:19:50.744Z,60.00
2018-05-04T08:22:19.974Z,64.40
2018-05-04T08:24:49.426Z,63.30
2018-05-04T08:27:19.126Z,62.40
2018-05-04T08:29:48.455Z,67.70
2018-05-04T08:32:18.469Z,67.10
2018-05-04T08:34:47.865Z,67.00
2018-05-04T08:37:17.873Z,66.40
2018-05-04T08:39:47.222Z,66.30
2018-05-04T08:42:16.455Z,69.80
2018-05-04T08:44:45.815Z,67.20
2018-05-04T08:47:15.066Z,64.40
2018-05-04T08:49:45.105Z,67.40
2018-05-04T08:52:14.334Z,70.90
2018-05-04T08:54:43.702Z,70.60
2018-05-04T08:57:13.050Z,71.70
2018-05-04T08:59:42.299Z,72.30
2018-05-04T09:02:11.528Z,71.30
2018-05-04T09:04:40.902Z,71.20
2018-05-04T09:07:10.149Z,69.30
2018-05-04T09:09:39.926Z,69.20
2018-05-04T09:12:10.035Z,66.80
2018-05-04T09:14:39.540Z,70.00
2018-05-04T09:17:08.923Z,69.70
2018-05-04T09:19:38.205Z,69.20
2018-05-04T09:22:07.649Z,58.00
2018-05-04T09:24:36.887Z,55.20
2018-05-04T09:27:06.242Z,59.00
2018-05-04T09:29:35.724Z,54.60
2018-05-04T09:32:05.075Z,51.70
2018-05-04T09:34:34.294Z,51.80
2018-05-04T09:37:03.679Z,55.70
2018-05-04T09:39:33.682Z,56.40
2018-05-04T09:42:03.293Z,56.50
2018-05-04T09:44:32.948Z,57.80
2018-05-04T09:47:02.332Z,56.80
2018-05-04T09:49:32.330Z,56.30
2018-05-04T09:52:01.790Z,56.80
2018-05-04T09:54:31.031Z,57.10
2018-05-04T09:57:01.013Z,55.30
2018-05-04T09:59:30.641Z,57.30
2018-05-04T10:02:00.153Z,54.00
2018-05-04T10:04:29.374Z,53.80
2018-05-04T10:06:59.133Z,56.30
2018-05-04T10:09:28.670Z,53.50
2018-05-04T10:11:58.178Z,51.80
2018-05-04T10:14:27.673Z,51.40
2018-05-04T10:16:56.902Z,53.20
2018-05-04T10:19:26.920Z,55.70
2018-05-04T10:21:56.189Z,57.50
2018-05-04T10:24:25.572Z,55.00
2018-05-04T10:26:54.775Z,54.70
2018-05-04T10:29:24.106Z,52.90
2018-05-04T10:31:53.474Z,53.80
2018-05-04T10:34:22.818Z,54.90
2018-05-04T10:36:52.048Z,50.70
2018-05-04T10:39:21.511Z,52.50
2018-05-04T10:41:50.730Z,52.40
2018-05-04T10:44:20.111Z,52.50
2018-05-04T10:46:49.502Z,53.80
2018-05-04T10:49:18.837Z,54.70
2018-05-04T10:51:48.069Z,52.40
2018-05-04T10:54:17.549Z,53.60
2018-05-04T10:56:47.488Z,54.20
2018-05-04T10:59:17.758Z,53.80
2018-05-04T11:01:46.993Z,54.90
2018-05-04T11:04:16.362Z,56.40
2018-05-04T11:06:45.590Z,55.90
2018-05-04T11:09:14.826Z,57.50
2018-05-04T11:11:44.161Z,58.00
2018-05-04T11:14:13.415Z,53.90
2018-05-04T11:16:42.749Z,55.70
2018-05-04T11:19:12.074Z,57.60
2018-05-04T11:21:41.443Z,55.50
2018-05-04T11:24:10.678Z,56.10
2018-05-04T11:26:40.707Z,55.90
2018-05-04T11:29:09.914Z,55.50
2018-05-04T11:31:40.337Z,54.10
2018-05-04T11:34:10.329Z,54.40
2018-05-04T11:36:39.722Z,54.20
2018-05-04T11:39:08.953Z,53.70
2018-05-04T11:41:38.338Z,53.10
2018-05-04T11:44:07.566Z,51.90
2018-05-04T11:46:36.923Z,52.10
2018-05-04T11:49:06.186Z,53.10
2018-05-04T11:51:35.541Z,50.70
2018-05-04T11:54:04.767Z,51.90
2018-05-04T11:56:35.065Z,51.00
2018-05-04T11:59:04.298Z,51.00
2018-05-04T12:01:33.660Z,51.80
2018-05-04T12:04:02.887Z,51.80
2018-05-04T12:06:32.373Z,53.70
2018-05-04T12:09:02.886Z,54.10
2018-05-04T12:11:32.403Z,54.10
2018-05-04T12:14:01.914Z,54.60
2018-05-04T12:16:32.254Z,55.10
2018-05-04T12:19:01.763Z,54.20
2018-05-04T12:21:30.971Z,54.90
2018-05-04T12:24:00.330Z,55.00
2018-05-04T12:26:30.376Z,55.90
2018-05-04T12:29:00.478Z,55.10
2018-05-04T12:31:29.728Z,55.10
2018-05-04T12:33:59.204Z,53.70
2018-05-04T12:36:29.763Z,53.70
2018-05-04T12:38:59.209Z,53.70
2018-05-04T12:41:28.465Z,53.30
2018-05-04T12:43:57.836Z,50.70
2018-05-04T12:46:27.827Z,51.60
2018-05-04T12:48:57.241Z,51.50
2018-05-04T12:51:26.505Z,51.00
2018-05-04T12:53:55.826Z,51.40
2018-05-04T12:56:25.621Z,52.80
2018-05-04T12:58:55.026Z,51.20
2018-05-04T13:01:24.289Z,49.60
2018-05-04T13:03:53.662Z,50.20
2018-05-04T13:06:22.923Z,49.40
2018-05-04T13:08:52.266Z,50.00
2018-05-04T13:11:21.503Z,49.40
2018-05-04T13:13:50.744Z,48.20
2018-05-04T13:16:20.268Z,48.40
2018-05-04T13:18:49.494Z,48.20
2018-05-04T13:21:18.811Z,51.10
2018-05-04T13:23:48.458Z,50.00
2018-05-04T13:26:17.877Z,49.30
2018-05-04T13:28:47.126Z,50.00
2018-05-04T13:31:16.698Z,48.20
2018-05-04T13:33:46.618Z,46.00
2018-05-04T13:36:17.348Z,47.00
2018-05-04T13:38:46.602Z,46.80
2018-05-04T13:41:15.909Z,48.30
2018-05-04T13:43:45.183Z,48.40
2018-05-04T13:46:14.670Z,47.50
2018-05-04T13:48:43.868Z,47.90
2018-05-04T13:51:14.251Z,46.70
2018-05-04T13:53:43.549Z,46.70
2018-05-04T13:56:14.412Z,46.70
2018-05-04T13:58:43.796Z,46.40
2018-05-04T14:01:13.710Z,46.40
2018-05-04T14:03:42.939Z,46.70
2018-05-04T14:06:13.259Z,45.60
2018-05-04T14:08:42.499Z,45.60
2018-05-04T14:11:12.165Z,46.60
2018-05-04T14:13:41.490Z,45.20
2018-05-04T14:16:11.279Z,45.60
2018-05-04T14:18:40.655Z,45.70
2018-05-04T14:21:09.890Z,44.40
2018-05-04T14:23:40.818Z,43.10
2018-05-04T14:26:10.452Z,43.10
2018-05-04T14:28:39.855Z,42.60
2018-05-04T14:31:09.963Z,43.40
2018-05-04T14:33:40.277Z,43.50
2018-05-04T14:36:09.516Z,43.40
2018-05-04T14:38:38.874Z,44.00
2018-05-04T14:41:08.660Z,42.80
2018-05-04T14:43:38.087Z,42.80
2018-05-04T14:46:07.375Z,43.00
2018-05-04T14:48:36.727Z,43.00
2018-05-04T14:51:06.067Z,42.60
2018-05-04T14:53:35.498Z,41.90
2018-05-04T14:56:05.702Z,41.80
2018-05-04T14:58:35.169Z,42.60
2018-05-04T15:01:05.246Z,41.30
2018-05-04T15:03:34.880Z,41.40
2018-05-04T15:06:04.128Z,41.10
2018-05-04T15:08:33.582Z,40.70
2018-05-04T15:11:03.578Z,40.40
2018-05-04T15:13:32.982Z,40.40
2018-05-04T15:16:02.252Z,41.00
2018-05-04T15:18:31.498Z,41.20
2018-05-04T15:21:01.294Z,41.80
2018-05-04T15:23:30.523Z,42.60
2018-05-04T15:25:59.915Z,42.90
2018-05-04T15:28:29.128Z,42.00
2018-05-04T15:30:58.494Z,42.20
2018-05-04T15:33:27.980Z,43.30
2018-05-04T15:35:57.325Z,43.50
2018-05-04T15:38:27.394Z,42.90
2018-05-04T15:40:57.084Z,42.90
2018-05-04T15:43:26.363Z,43.40
2018-05-04T15:45:56.496Z,42.00
2018-05-04T15:48:32.083Z,42.20
2018-05-04T15:51:06.875Z,42.10
2018-05-04T15:53:36.174Z,42.90
2018-05-04T15:56:05.499Z,43.20
2018-05-04T15:58:34.736Z,42.70
2018-05-04T16:01:04.073Z,43.50
2018-05-04T16:03:33.643Z,42.80
2018-05-04T16:06:03.182Z,43.30
2018-05-04T16:08:32.336Z,43.50
2018-05-04T16:11:01.666Z,44.40
2018-05-04T16:13:30.902Z,44.40
2018-05-04T16:16:00.264Z,44.80
2018-05-04T16:18:29.482Z,44.30
2018-05-04T16:20:58.723Z,45.40
2018-05-04T16:23:28.058Z,45.70
2018-05-04T16:25:57.621Z,45.20
2018-05-04T16:28:27.675Z,46.00
2018-05-04T16:30:56.919Z,46.60
2018-05-04T16:33:26.481Z,46.60
2018-05-04T16:35:57.134Z,46.60
2018-05-04T16:38:26.601Z,47.60
2018-05-04T16:40:55.866Z,48.50
2018-05-04T16:43:25.322Z,48.60
2018-05-04T16:45:54.671Z,47.90
2018-05-04T16:48:29.665Z,48.80
2018-05-04T16:50:58.898Z,48.60
2018-05-04T16:53:28.908Z,50.20
2018-05-04T16:55:58.897Z,49.50
2018-05-04T16:58:28.236Z,49.40
2018-05-04T17:00:57.472Z,48.80
2018-05-04T17:03:26.825Z,48.40
2018-05-04T17:05:56.187Z,48.30
2018-05-04T17:08:25.710Z,49.20
2018-05-04T17:10:55.409Z,49.20
2018-05-04T17:13:24.879Z,49.50
2018-05-04T17:15:54.112Z,48.20
2018-05-04T17:18:24.021Z,48.40
2018-05-04T17:20:53.250Z,48.60
2018-05-04T17:23:23.559Z,48.60
2018-05-04T17:25:52.905Z,48.30
2018-05-04T17:28:22.894Z,48.10
2018-05-04T17:30:52.234Z,48.10
2018-05-04T17:33:21.495Z,48.30
2018-05-04T17:35:52.842Z,48.10
2018-05-04T17:38:22.076Z,48.10
2018-05-04T17:40:51.446Z,48.80
2018-05-04T17:43:20.773Z,49.10
2018-05-04T17:45:50.112Z,49.40
2018-05-04T17:48:20.391Z,49.70
2018-05-04T17:50:50.509Z,49.70
2018-05-04T17:53:19.710Z,53.60
2018-05-04T17:55:49.074Z,57.80
2018-05-04T17:58:18.293Z,59.30
2018-05-04T18:00:47.663Z,62.40
2018-05-04T18:03:16.890Z,64.70
2018-05-04T18:05:46.221Z,66.50
2018-05-04T18:08:15.446Z,69.70
2018-05-04T18:10:44.797Z,71.20
2018-05-04T18:13:14.031Z,73.70
2018-05-04T18:15:43.377Z,75.70
2018-05-04T18:18:12.612Z,77.20
2018-05-04T18:20:41.958Z,78.60
2018-05-04T18:23:11.305Z,80.20
2018-05-04T18:25:40.619Z,80.70
2018-05-04T18:28:10.918Z,82.50
2018-05-04T18:30:40.150Z,82.40
2018-05-04T18:33:09.484Z,83.60
2018-05-04T18:35:38.897Z,84.80
2018-05-04T18:38:08.237Z,85.20
2018-05-04T18:40:37.483Z,85.90
2018-05-04T18:43:07.146Z,86.60
2018-05-04T18:45:37.139Z,87.90
2018-05-04T18:48:06.520Z,87.00
2018-05-04T18:50:37.459Z,87.90
2018-05-04T18:53:06.788Z,88.30
2018-05-04T18:55:36.178Z,88.50
2018-05-04T18:58:05.545Z,88.70
2018-05-04T19:00:34.763Z,89.10
2018-05-04T19:05:59.954Z,89.60
2018-05-04T19:08:29.360Z,90.00
2018-05-04T19:10:59.509Z,90.10
2018-05-04T19:13:28.853Z,90.10
2018-05-04T19:15:58.079Z,90.10
2018-05-04T19:18:28.170Z,90.50
2018-05-04T19:20:57.458Z,90.50
2018-05-04T19:23:26.796Z,90.10
2018-05-04T19:25:56.010Z,90.10
2018-05-04T19:28:25.341Z,89.70
2018-05-04T19:30:54.575Z,89.80
2018-05-04T19:33:23.807Z,90.20
2018-05-04T19:35:53.173Z,90.00
2018-05-04T19:38:22.398Z,90.70
2018-05-04T19:40:52.495Z,90.10
2018-05-04T19:43:21.717Z,90.10
2018-05-04T19:45:51.142Z,90.20
2018-05-04T19:48:20.318Z,90.50
2018-05-04T19:50:49.622Z,90.50
2018-05-04T19:53:18.930Z,90.60
2018-05-04T19:55:48.309Z,90.70
2018-05-04T19:58:17.553Z,91.00
2018-05-04T20:00:46.878Z,90.90
2018-05-04T20:03:16.117Z,90.70
2018-05-04T20:05:45.445Z,90.90
2018-05-04T20:08:14.671Z,90.90
2018-05-04T20:10:44.056Z,91.40
2018-05-04T20:13:13.278Z,91.10
2018-05-04T20:15:42.633Z,91.40
2018-05-04T20:18:11.833Z,91.30
2018-05-04T20:20:41.930Z,91.30
2018-05-04T20:23:11.157Z,91.30
2018-05-04T20:25:41.248Z,90.10
2018-05-04T20:28:10.470Z,90.10
2018-05-04T20:30:40.576Z,90.00
2018-05-04T20:33:10.562Z,89.30
2018-05-04T20:35:39.784Z,89.00
2018-05-04T20:38:09.113Z,89.50
2018-05-04T20:40:39.102Z,89.70
2018-05-04T20:43:08.428Z,89.70
2018-05-04T20:45:37.689Z,89.70
2018-05-04T20:48:07.058Z,90.20
2018-05-04T20:50:36.286Z,90.00
2018-05-04T20:53:05.635Z,89.90
2018-05-04T20:55:34.985Z,90.00
2018-05-04T20:58:04.305Z,89.30
2018-05-04T21:00:33.746Z,89.40
2018-05-04T21:03:03.135Z,88.80
2018-05-04T21:05:32.949Z,88.80
2018-05-04T21:08:02.427Z,89.00
2018-05-04T21:10:31.628Z,89.60
2018-05-04T21:13:00.957Z,88.60
2018-05-04T21:15:30.443Z,88.50
2018-05-04T21:17:59.829Z,90.20
2018-05-04T21:20:29.050Z,88.90
2018-05-04T21:22:59.137Z,88.50
2018-05-04T21:25:28.366Z,88.20
2018-05-04T21:27:57.727Z,88.30
2018-05-04T21:30:26.983Z,88.10
2018-05-04T21:32:56.240Z,88.80
2018-05-04T21:35:26.475Z,87.70
2018-05-04T21:37:55.925Z,87.60
2018-05-04T21:40:25.270Z,87.80
2018-05-04T21:42:55.511Z,88.70
2018-05-04T21:45:24.846Z,88.50
2018-05-04T21:47:54.146Z,87.60
2018-05-04T21:50:23.488Z,87.60
2018-05-04T21:52:52.724Z,87.10
2018-05-04T21:55:22.061Z,87.50
2018-05-04T21:57:52.234Z,90.00
2018-05-04T22:00:21.554Z,90.00
2018-05-04T22:02:50.782Z,89.50
2018-05-04T22:05:20.111Z,90.30
2018-05-04T22:07:49.326Z,88.40
2018-05-04T22:10:18.655Z,87.70
2018-05-04T22:12:48.650Z,89.00
2018-05-04T22:15:18.230Z,88.80
2018-05-04T22:17:47.473Z,90.40
2018-05-04T22:20:16.837Z,90.30
2018-05-04T22:22:46.082Z,89.80
2018-05-04T22:25:15.416Z,89.70
2018-05-04T22:27:44.642Z,89.80
2018-05-04T22:30:13.977Z,90.30
2018-05-04T22:32:43.208Z,90.30
2018-05-04T22:35:12.529Z,89.50
2018-05-04T22:37:41.771Z,90.40
2018-05-04T22:40:11.105Z,90.40
2018-05-04T22:42:41.415Z,90.60
2018-05-04T22:45:10.658Z,90.90
2018-05-04T22:47:40.008Z,90.40
2018-05-04T22:50:09.240Z,90.50
2018-05-04T22:52:38.590Z,90.80
2018-05-04T22:55:07.821Z,90.80
2018-05-04T22:57:37.929Z,90.80
2018-05-04T23:00:07.149Z,90.80
2018-05-04T23:02:37.239Z,90.90
2018-05-04T23:05:06.474Z,90.90
2018-05-04T23:07:35.818Z,91.90
2018-05-04T23:10:05.062Z,92.20
2018-05-04T23:12:35.186Z,92.80
2018-05-04T23:15:05.178Z,93.00
2018-05-04T23:17:34.564Z,93.30
2018-05-04T23:20:03.814Z,92.50
2018-05-04T23:22:33.162Z,93.30
2018-05-04T23:25:02.386Z,93.00
2018-05-04T23:27:31.705Z,92.80
2018-05-04T23:30:00.951Z,92.60
2018-05-04T23:32:30.307Z,92.30
2018-05-04T23:34:59.538Z,93.00
2018-05-04T23:37:28.874Z,92.70
2018-05-04T23:39:58.148Z,92.90
2018-05-04T23:42:27.476Z,93.70
2018-05-04T23:44:56.699Z,93.00
2018-05-04T23:47:26.083Z,93.40
2018-05-04T23:49:55.316Z,94.00
2018-05-04T23:52:24.626Z,93.90
2018-05-04T23:54:54.029Z,94.10
2018-05-04T23:57:23.246Z,93.90
2018-05-04T23:59:52.567Z,93.30
